createdAt,value
2023-01-23T00:00:09.520Z,19.20
2023-01-23T00:02:37.918Z,17.07
2023-01-23T00:05:06.824Z,14.90
2023-01-23T00:07:34.636Z,17.87
2023-01-23T00:10:02.424Z,18.17
2023-01-23T00:12:30.349Z,17.17
2023-01-23T00:14:59.682Z,16.37
2023-01-23T00:17:28.179Z,14.77
2023-01-23T00:19:56.140Z,19.30
2023-01-23T00:22:23.968Z,17.30
2023-01-23T00:24:51.817Z,19.48
2023-01-23T00:27:19.862Z,17.87
2023-01-23T00:29:48.541Z,15.90
2023-01-23T00:32:17.881Z,17.40
2023-01-23T00:34:46.477Z,15.80
2023-01-23T00:37:15.013Z,15.20
2023-01-23T00:39:43.032Z,14.30
2023-01-23T00:42:10.953Z,15.35
2023-01-23T00:44:39.251Z,15.05
2023-01-23T00:47:07.552Z,15.23
2023-01-23T00:49:37.252Z,16.70
2023-01-23T00:52:05.610Z,15.52
2023-01-23T00:54:33.929Z,13.77
2023-01-23T00:57:01.993Z,15.83
2023-01-23T00:59:29.982Z,14.13
2023-01-23T01:01:57.944Z,18.07
2023-01-23T01:04:25.967Z,16.30
2023-01-23T01:06:55.600Z,17.40
2023-01-23T01:09:23.998Z,16.83
2023-01-23T01:11:52.575Z,14.70
2023-01-23T01:14:20.542Z,19.23
2023-01-23T01:16:49.130Z,16.58
2023-01-23T01:19:19.101Z,15.77
2023-01-23T01:21:48.708Z,14.13
2023-01-23T01:24:17.980Z,14.00
2023-01-23T01:26:46.071Z,13.65
2023-01-23T01:29:14.004Z,16.87
2023-01-23T01:31:41.940Z,15.98
2023-01-23T01:34:09.853Z,15.23
2023-01-23T01:36:37.913Z,13.87
2023-01-23T01:39:06.060Z,16.53
2023-01-23T01:41:35.803Z,15.93
2023-01-23T01:44:04.256Z,15.88
2023-01-23T01:46:33.164Z,14.55
2023-01-23T01:49:06.938Z,16.60
2023-01-23T01:51:39.378Z,16.45
2023-01-23T01:54:15.844Z,14.07
2023-01-23T01:56:50.600Z,13.97
2023-01-23T01:59:20.245Z,14.57
2023-01-23T02:01:51.440Z,15.95
2023-01-23T02:04:19.583Z,14.10
2023-01-23T02:06:48.166Z,12.60
2023-01-23T02:09:20.129Z,12.93
2023-01-23T02:11:50.286Z,14.77
2023-01-23T02:14:18.428Z,11.80
2023-01-23T02:16:51.077Z,13.35
2023-01-23T02:19:34.139Z,11.53
2023-01-23T02:22:08.997Z,10.70
2023-01-23T02:24:40.307Z,11.87
2023-01-23T02:27:09.848Z,10.52
2023-01-23T02:29:45.131Z,12.33
2023-01-23T02:32:13.528Z,13.25
2023-01-23T02:34:43.691Z,13.45
2023-01-23T02:37:11.627Z,14.18
2023-01-23T02:39:39.700Z,13.27
2023-01-23T02:42:09.528Z,14.50
2023-01-23T02:44:37.463Z,13.60
2023-01-23T02:47:11.867Z,12.77
2023-01-23T02:49:40.415Z,13.20
2023-01-23T02:52:09.667Z,13.88
2023-01-23T02:54:38.080Z,11.17
2023-01-23T02:57:05.956Z,14.87
2023-01-23T02:59:53.223Z,13.47
2023-01-23T03:02:21.063Z,14.80
2023-01-23T03:04:48.884Z,12.85
2023-01-23T03:07:16.794Z,12.83
2023-01-23T03:09:47.808Z,13.93
2023-01-23T03:12:16.155Z,10.03
2023-01-23T03:14:45.474Z,13.90
2023-01-23T03:17:14.983Z,13.87
2023-01-23T03:19:42.776Z,15.50
2023-01-23T03:22:10.701Z,13.47
2023-01-23T03:24:39.143Z,14.53
2023-01-23T03:27:06.925Z,12.40
2023-01-23T03:29:52.774Z,13.93
2023-01-23T03:32:22.568Z,17.00
2023-01-23T03:34:50.485Z,12.70
2023-01-23T03:37:19.721Z,13.40
2023-01-23T03:40:07.212Z,14.80
2023-01-23T03:42:35.775Z,12.63
2023-01-23T03:45:04.124Z,13.98
2023-01-23T03:47:33.334Z,15.17
2023-01-23T03:50:01.194Z,16.50
2023-01-23T03:52:29.052Z,15.33
2023-01-23T03:54:57.051Z,16.43
2023-01-23T03:57:25.033Z,20.60
2023-01-23T03:59:52.859Z,15.77
2023-01-23T04:02:20.781Z,16.17
2023-01-23T04:04:50.097Z,20.43
2023-01-23T04:07:17.973Z,17.60
2023-01-23T04:09:45.921Z,16.07
2023-01-23T04:12:13.738Z,14.07
2023-01-23T04:14:41.687Z,17.43
2023-01-23T04:17:10.005Z,15.10
2023-01-23T04:19:37.832Z,16.60
2023-01-23T04:22:07.057Z,15.63
2023-01-23T04:24:35.161Z,14.17
2023-01-23T04:27:02.998Z,18.43
2023-01-23T04:29:30.872Z,15.00
2023-01-23T04:31:58.704Z,14.33
2023-01-23T04:34:26.636Z,19.90
2023-01-23T04:36:54.459Z,16.03
2023-01-23T04:39:23.701Z,15.83
2023-01-23T04:41:51.551Z,14.27
2023-01-23T04:44:22.176Z,13.83
2023-01-23T04:46:51.124Z,15.60
2023-01-23T04:49:19.540Z,15.30
2023-01-23T04:51:48.423Z,15.00
2023-01-23T04:54:16.446Z,16.67
2023-01-23T04:56:45.924Z,16.20
2023-01-23T04:59:14.180Z,16.17
2023-01-23T05:01:42.007Z,16.47
2023-01-23T05:04:09.822Z,16.73
2023-01-23T05:06:38.020Z,14.27
2023-01-23T05:09:05.874Z,17.13
2023-01-23T05:11:33.864Z,18.30
2023-01-23T05:14:03.026Z,20.70
2023-01-23T05:16:31.058Z,21.83
2023-01-23T05:18:58.911Z,18.60
2023-01-23T05:21:26.764Z,19.57
2023-01-23T05:23:54.726Z,19.77
2023-01-23T05:26:22.637Z,22.23
2023-01-23T05:28:50.485Z,22.47
2023-01-23T05:31:19.836Z,22.37
2023-01-23T05:33:48.018Z,21.93
2023-01-23T05:36:18.358Z,25.63
2023-01-23T05:38:46.507Z,22.47
2023-01-23T05:41:14.451Z,27.73
2023-01-23T05:43:42.335Z,22.07
2023-01-23T05:46:10.258Z,23.60
2023-01-23T05:48:39.491Z,26.13
2023-01-23T05:51:07.387Z,26.27
2023-01-23T05:53:35.154Z,27.17
2023-01-23T05:56:06.922Z,22.87
2023-01-23T05:58:34.958Z,25.00
2023-01-23T06:01:03.625Z,22.30
2023-01-23T06:03:31.524Z,24.67
2023-01-23T06:06:02.030Z,27.67
2023-01-23T06:08:29.897Z,30.73
2023-01-23T06:10:59.751Z,20.87
2023-01-23T06:13:27.868Z,22.30
2023-01-23T06:15:56.120Z,19.67
2023-01-23T06:18:24.118Z,22.60
2023-01-23T06:20:52.050Z,25.07
2023-01-23T06:23:21.404Z,22.20
2023-01-23T06:25:49.171Z,23.20
2023-01-23T06:28:17.073Z,21.30
2023-01-23T06:30:44.989Z,19.50
2023-01-23T06:33:12.865Z,18.97
2023-01-23T06:35:41.255Z,18.57
2023-01-23T06:38:09.309Z,24.07
2023-01-23T06:40:42.096Z,18.27
2023-01-23T06:43:10.040Z,20.60
2023-01-23T06:45:37.893Z,20.13
2023-01-23T06:48:05.871Z,18.87
2023-01-23T06:50:33.761Z,21.30
2023-01-23T06:53:01.601Z,19.20
2023-01-23T06:55:29.436Z,17.87
2023-01-23T06:57:58.722Z,18.67
2023-01-23T07:00:27.132Z,21.70
2023-01-23T07:02:58.877Z,20.83
2023-01-23T07:05:26.766Z,18.80
2023-01-23T07:07:54.619Z,18.17
2023-01-23T07:10:23.095Z,20.17
2023-01-23T07:12:51.417Z,22.13
2023-01-23T07:15:20.979Z,18.70
2023-01-23T07:17:48.725Z,18.43
2023-01-23T07:20:17.001Z,21.70
2023-01-23T07:22:45.139Z,18.43
2023-01-23T07:25:12.970Z,18.67
2023-01-23T07:27:41.109Z,17.87
2023-01-23T07:30:10.737Z,20.17
2023-01-23T07:32:39.939Z,17.90
2023-01-23T07:35:09.180Z,21.13
2023-01-23T07:37:37.556Z,21.90
2023-01-23T07:40:06.220Z,21.43
2023-01-23T07:42:33.998Z,20.73
2023-01-23T07:45:02.050Z,18.73
2023-01-23T07:47:29.834Z,21.43
2023-01-23T07:49:59.013Z,16.30
2023-01-23T07:52:26.940Z,24.10
2023-01-23T07:54:54.695Z,19.73
2023-01-23T07:57:22.520Z,21.90
2023-01-23T07:59:50.348Z,21.73
2023-01-23T08:02:18.270Z,20.03
2023-01-23T08:04:46.100Z,20.63
2023-01-23T08:07:15.334Z,19.93
2023-01-23T08:09:43.396Z,23.03
2023-01-23T08:12:12.778Z,21.63
2023-01-23T08:14:41.582Z,19.80
2023-01-23T08:17:09.409Z,20.30
2023-01-23T08:19:37.230Z,19.53
2023-01-23T08:22:05.889Z,21.87
2023-01-23T08:24:35.095Z,17.83
2023-01-23T08:27:03.073Z,20.30
2023-01-23T08:29:32.549Z,21.47
2023-01-23T08:32:00.662Z,20.20
2023-01-23T08:34:28.588Z,18.93
2023-01-23T08:36:56.553Z,19.67
2023-01-23T08:39:24.984Z,18.70
2023-01-23T08:41:55.428Z,19.50
2023-01-23T08:44:23.264Z,18.67
2023-01-23T08:46:51.255Z,22.17
2023-01-23T08:49:20.411Z,24.30
2023-01-23T08:51:51.363Z,21.07
2023-01-23T08:54:19.155Z,21.83
2023-01-23T08:56:46.970Z,20.70
2023-01-23T08:59:16.184Z,18.57
2023-01-23T09:01:43.985Z,19.67
2023-01-23T09:04:11.770Z,21.23
2023-01-23T09:06:39.777Z,19.10
2023-01-23T09:09:09.400Z,17.83
2023-01-23T09:11:37.332Z,18.23
2023-01-23T09:14:05.250Z,20.30
2023-01-23T09:16:34.592Z,18.27
2023-01-23T09:19:02.415Z,23.40
2023-01-23T09:21:30.278Z,17.20
2023-01-23T09:23:58.179Z,17.77
2023-01-23T09:26:26.094Z,18.30
2023-01-23T09:28:53.865Z,16.23
2023-01-23T09:31:21.671Z,17.43
2023-01-23T09:33:51.134Z,14.20
2023-01-23T09:36:20.624Z,16.73
2023-01-23T09:38:53.185Z,16.97
2023-01-23T09:41:24.852Z,16.70
2023-01-23T09:43:57.431Z,14.87
2023-01-23T09:46:29.823Z,14.53
2023-01-23T09:49:04.220Z,14.27
2023-01-23T09:51:42.441Z,16.10
2023-01-23T09:54:20.180Z,15.10
2023-01-23T09:56:50.347Z,13.57
2023-01-23T09:59:29.011Z,15.47
2023-01-23T10:01:57.566Z,13.83
2023-01-23T10:04:26.759Z,17.17
2023-01-23T10:07:13.612Z,15.43
2023-01-23T10:09:51.366Z,13.93
2023-01-23T10:12:33.520Z,13.80
2023-01-23T10:15:34.541Z,14.47
2023-01-23T10:18:16.169Z,14.97
2023-01-23T10:21:10.789Z,15.37
2023-01-23T10:23:48.377Z,14.87
2023-01-23T10:26:21.579Z,12.87
2023-01-23T10:28:50.583Z,16.80
2023-01-23T10:31:32.053Z,14.00
2023-01-23T10:34:08.745Z,15.77
2023-01-23T10:36:53.744Z,14.37
2023-01-23T10:39:27.825Z,14.40
2023-01-23T10:42:01.978Z,12.50
2023-01-23T10:44:32.385Z,14.60
2023-01-23T10:47:03.908Z,13.43
2023-01-23T10:49:35.116Z,15.17
2023-01-23T10:52:04.900Z,13.83
2023-01-23T10:54:47.034Z,14.83
2023-01-23T10:57:24.661Z,16.13
2023-01-23T10:59:56.962Z,15.23
2023-01-23T11:02:29.890Z,13.93
2023-01-23T11:04:58.695Z,18.70
2023-01-23T11:07:29.261Z,13.90
2023-01-23T11:09:59.579Z,13.20
2023-01-23T11:12:28.927Z,13.70
2023-01-23T11:15:21.472Z,15.55
2023-01-23T11:17:50.717Z,13.43
2023-01-23T11:20:28.314Z,13.33
2023-01-23T11:23:06.521Z,11.27
2023-01-23T11:25:38.128Z,12.43
2023-01-23T11:28:23.433Z,12.93
2023-01-23T11:31:07.921Z,15.77
2023-01-23T11:33:47.592Z,16.20
2023-01-23T11:36:37.722Z,14.83
2023-01-23T11:39:17.359Z,13.83
2023-01-23T11:41:47.234Z,13.40
2023-01-23T11:44:19.184Z,13.60
2023-01-23T11:47:02.600Z,15.45
2023-01-23T11:49:51.451Z,13.77
2023-01-23T11:52:31.829Z,16.40
2023-01-23T11:55:28.121Z,12.03
2023-01-23T11:58:04.869Z,14.13
2023-01-23T12:00:39.226Z,13.37
2023-01-23T12:03:31.058Z,13.47
2023-01-23T12:06:36.015Z,12.40
2023-01-23T12:09:10.637Z,15.27
2023-01-23T12:11:52.451Z,12.23
2023-01-23T12:14:26.233Z,14.23
2023-01-23T12:17:12.417Z,11.70
2023-01-23T12:20:11.379Z,12.15
2023-01-23T12:22:55.636Z,12.77
2023-01-23T12:25:31.141Z,11.40
2023-01-23T12:28:06.995Z,8.90
2023-01-23T12:30:56.506Z,10.83
2023-01-23T12:33:36.900Z,11.40
2023-01-23T12:36:20.781Z,16.87
2023-01-23T12:38:57.932Z,11.25
2023-01-23T12:41:36.413Z,11.43
2023-01-23T12:44:12.503Z,11.50
2023-01-23T12:46:46.187Z,12.63
2023-01-23T12:49:27.382Z,9.87
2023-01-23T12:52:01.490Z,11.13
2023-01-23T12:54:36.944Z,11.53
2023-01-23T12:57:07.431Z,10.07
2023-01-23T12:59:49.917Z,14.30
2023-01-23T13:02:26.794Z,16.77
2023-01-23T13:05:10.957Z,16.07
2023-01-23T13:07:47.273Z,15.67
2023-01-23T13:10:26.752Z,12.50
2023-01-23T13:12:57.315Z,15.40
2023-01-23T13:15:39.853Z,15.80
2023-01-23T13:18:23.524Z,18.38
2023-01-23T13:21:15.657Z,14.50
2023-01-23T13:23:43.652Z,15.65
2023-01-23T13:26:29.025Z,14.43
2023-01-23T13:28:58.728Z,15.68
2023-01-23T13:31:35.507Z,14.18
2023-01-23T13:34:15.403Z,14.95
2023-01-23T13:36:44.485Z,17.48
2023-01-23T13:39:28.379Z,17.17
2023-01-23T13:42:45.709Z,15.10
2023-01-23T13:45:31.187Z,20.93
2023-01-23T14:22:37.189Z,14.98
2023-01-23T14:25:15.065Z,17.38
2023-01-23T14:27:52.588Z,12.60
2023-01-23T14:30:24.707Z,16.33
2023-01-23T14:32:52.752Z,15.10
2023-01-23T14:35:26.129Z,15.87
2023-01-23T14:37:59.203Z,13.73
2023-01-23T14:40:35.183Z,15.47
2023-01-23T14:43:09.726Z,16.90
2023-01-23T14:45:39.189Z,15.23
2023-01-23T14:48:14.720Z,17.02
2023-01-23T14:50:42.963Z,17.23
2023-01-23T14:53:15.937Z,15.32
2023-01-23T14:55:47.282Z,15.18
2023-01-23T14:58:22.231Z,12.82
2023-01-23T15:00:51.006Z,16.17
2023-01-23T15:03:37.969Z,12.57
2023-01-23T15:06:10.759Z,16.23
2023-01-23T15:08:40.265Z,14.33
2023-01-23T15:11:12.036Z,16.35
2023-01-23T15:13:48.353Z,18.63
2023-01-23T15:16:20.726Z,14.98
2023-01-23T15:19:00.638Z,15.68
2023-01-23T15:21:34.956Z,15.18
2023-01-23T15:24:23.070Z,19.37
2023-01-23T15:27:23.604Z,16.17
2023-01-23T15:29:51.796Z,15.30
2023-01-23T15:32:26.327Z,16.23
2023-01-23T15:34:57.802Z,16.15
2023-01-23T15:37:27.302Z,15.70
2023-01-23T15:39:59.740Z,15.32
2023-01-23T15:42:31.013Z,16.95
2023-01-23T15:45:01.440Z,17.67
2023-01-23T15:47:30.759Z,16.73
2023-01-23T15:50:01.470Z,16.98
2023-01-23T15:52:31.050Z,19.60
2023-01-23T15:55:02.518Z,16.73
2023-01-23T15:57:30.417Z,16.33
2023-01-23T15:59:58.205Z,14.73
2023-01-23T16:02:31.489Z,16.10
2023-01-23T16:05:01.103Z,16.77
2023-01-23T16:07:34.433Z,15.80
2023-01-23T16:10:04.447Z,19.45
2023-01-23T16:12:32.852Z,15.80
2023-01-23T16:15:00.748Z,16.25
2023-01-23T16:17:28.625Z,17.33
2023-01-23T16:19:56.496Z,17.38
2023-01-23T16:22:29.173Z,16.27
2023-01-23T16:24:58.373Z,15.00
2023-01-23T16:27:28.297Z,17.45
2023-01-23T16:29:56.444Z,14.10
2023-01-23T16:32:25.149Z,15.98
2023-01-23T16:34:53.169Z,15.93
2023-01-23T16:37:21.169Z,15.15
2023-01-23T16:39:49.067Z,15.73
2023-01-23T16:42:23.367Z,16.20
2023-01-23T16:44:52.614Z,16.92
2023-01-23T16:47:20.536Z,14.73
2023-01-23T16:49:53.337Z,16.60
2023-01-23T16:52:25.979Z,16.45
2023-01-23T16:54:55.528Z,13.85
2023-01-23T16:57:24.219Z,14.30
2023-01-23T16:59:56.349Z,17.20
2023-01-23T17:02:29.300Z,16.17
2023-01-23T17:04:57.290Z,17.30
2023-01-23T17:07:25.058Z,17.73
2023-01-23T17:09:52.875Z,14.50
2023-01-23T17:12:23.344Z,17.00
2023-01-23T17:14:53.557Z,16.90
2023-01-23T17:17:29.119Z,17.60
2023-01-23T17:20:07.967Z,16.58
2023-01-23T17:22:39.416Z,16.87
2023-01-23T17:25:14.446Z,15.98
2023-01-23T17:27:45.833Z,15.48
2023-01-23T17:30:19.295Z,13.13
2023-01-23T17:32:49.758Z,17.85
2023-01-23T17:35:22.759Z,19.33
2023-01-23T17:37:51.173Z,17.00
2023-01-23T17:40:19.430Z,17.35
2023-01-23T17:42:47.326Z,18.55
2023-01-23T17:45:17.824Z,19.15
2023-01-23T17:47:48.173Z,16.70
2023-01-23T17:50:20.727Z,17.08
2023-01-23T17:52:50.660Z,15.98
2023-01-23T17:55:20.689Z,15.45
2023-01-23T17:57:49.045Z,19.65
2023-01-23T18:00:20.811Z,19.40
2023-01-23T18:02:51.168Z,19.52
2023-01-23T18:05:19.138Z,17.92
2023-01-23T18:07:53.711Z,18.30
2023-01-23T18:10:24.563Z,18.33
2023-01-23T18:13:00.768Z,14.13
2023-01-23T18:15:37.855Z,13.27
2023-01-23T18:18:19.279Z,16.08
2023-01-23T18:20:48.325Z,17.55
2023-01-23T18:23:16.758Z,21.83
2023-01-23T18:25:46.644Z,19.15
2023-01-23T18:28:20.284Z,18.95
2023-01-23T18:31:00.160Z,17.30
2023-01-23T18:33:49.438Z,19.63
2023-01-23T18:36:26.313Z,18.65
2023-01-23T18:39:09.901Z,18.20
2023-01-23T18:41:41.784Z,19.05
2023-01-23T18:44:17.521Z,15.68
2023-01-23T18:46:47.187Z,18.58
2023-01-23T18:49:27.779Z,18.27
2023-01-23T18:52:09.051Z,16.48
2023-01-23T18:54:42.049Z,17.17
2023-01-23T18:57:24.452Z,16.65
2023-01-23T19:00:02.602Z,18.02
2023-01-23T19:02:40.460Z,17.77
2023-01-23T19:05:27.659Z,18.25
2023-01-23T19:07:56.412Z,18.30
2023-01-23T19:10:27.106Z,19.75
2023-01-23T19:13:09.119Z,22.45
2023-01-23T19:15:45.609Z,21.85
2023-01-23T19:18:38.789Z,20.40
2023-01-23T19:21:18.048Z,18.88
2023-01-23T19:23:52.661Z,20.15
2023-01-23T19:26:21.354Z,22.45
2023-01-23T19:28:50.744Z,22.48
2023-01-23T19:31:23.047Z,19.67
2023-01-23T19:33:52.586Z,18.48
2023-01-23T19:36:21.724Z,17.38
2023-01-23T19:38:49.683Z,23.50
2023-01-23T19:41:20.748Z,20.63
2023-01-23T19:43:50.431Z,20.98
2023-01-23T19:46:19.057Z,21.10
2023-01-23T19:48:47.000Z,26.33
2023-01-23T19:51:19.539Z,26.08
2023-01-23T19:53:47.757Z,21.90
2023-01-23T19:56:18.911Z,24.67
2023-01-23T19:58:47.671Z,22.58
2023-01-23T20:01:22.876Z,20.25
2023-01-23T20:03:51.197Z,16.95
2023-01-23T20:06:20.606Z,21.17
2023-01-23T20:08:48.433Z,21.58
2023-01-23T20:11:16.564Z,22.58
2023-01-23T20:13:44.383Z,21.08
2023-01-23T20:16:18.028Z,17.77
2023-01-23T20:18:46.795Z,22.02
2023-01-23T20:21:15.278Z,21.98
2023-01-23T20:23:44.598Z,22.25
2023-01-23T20:26:12.533Z,20.58
2023-01-23T20:28:40.878Z,18.60
2023-01-23T20:31:11.159Z,17.17
2023-01-23T20:33:39.169Z,17.52
2023-01-23T20:36:08.032Z,20.30
2023-01-23T20:38:35.893Z,17.88
2023-01-23T20:41:06.039Z,17.50
2023-01-23T20:43:34.141Z,16.13
2023-01-23T20:46:02.539Z,17.77
2023-01-23T20:48:34.773Z,17.27
2023-01-23T20:51:03.124Z,17.75
2023-01-23T20:53:29.955Z,20.00
2023-01-23T20:55:59.596Z,17.20
2023-01-23T20:58:46.703Z,20.40
2023-01-23T21:01:16.932Z,17.80
2023-01-23T21:03:46.638Z,17.38
2023-01-23T21:06:16.448Z,17.10
2023-01-23T21:08:44.661Z,16.33
2023-01-23T21:11:14.720Z,20.08
2023-01-23T21:13:44.586Z,18.90
2023-01-23T21:16:14.635Z,19.77
2023-01-23T21:18:44.803Z,18.15
2023-01-23T21:21:14.692Z,15.18
2023-01-23T21:23:42.813Z,19.52
2023-01-23T21:26:11.213Z,15.18
2023-01-23T21:28:39.412Z,16.02
2023-01-23T21:31:13.734Z,14.75
2023-01-23T21:33:44.090Z,16.42
2023-01-23T21:36:12.637Z,15.32
2023-01-23T21:38:40.777Z,18.17
2023-01-23T21:41:08.567Z,15.98
2023-01-23T21:43:36.370Z,15.55
2023-01-23T21:46:04.822Z,16.85
2023-01-23T21:48:35.382Z,14.80
2023-01-23T21:51:08.227Z,13.18
2023-01-23T21:53:37.668Z,16.95
2023-01-23T21:56:06.829Z,16.02
2023-01-23T21:58:34.911Z,16.25
2023-01-23T22:01:25.362Z,15.25
2023-01-23T22:03:54.595Z,16.95
2023-01-23T22:06:22.696Z,15.98
2023-01-23T22:08:50.581Z,14.43
2023-01-23T22:11:18.648Z,15.35
2023-01-23T22:13:47.068Z,16.60
2023-01-23T22:16:15.387Z,14.25
2023-01-23T22:18:43.395Z,13.05
2023-01-23T22:21:13.074Z,14.10
2023-01-23T22:23:41.299Z,13.65
2023-01-23T22:26:11.243Z,14.23
2023-01-23T22:28:39.652Z,15.90
2023-01-23T22:31:11.038Z,15.23
2023-01-23T22:33:41.137Z,16.35
2023-01-23T22:36:12.917Z,14.73
2023-01-23T22:38:42.246Z,16.13
2023-01-23T22:41:14.245Z,14.18
2023-01-23T22:43:42.185Z,16.13
2023-01-23T22:46:13.994Z,16.27
2023-01-23T22:48:42.447Z,17.17
2023-01-23T22:51:15.944Z,16.80
2023-01-23T22:53:45.691Z,16.98
2023-01-23T22:56:14.106Z,16.38
2023-01-23T22:58:45.767Z,16.33
2023-01-23T23:01:14.078Z,16.35
2023-01-23T23:03:42.268Z,17.48
2023-01-23T23:06:12.811Z,18.42
2023-01-23T23:08:48.142Z,15.93
2023-01-23T23:11:18.122Z,15.20
2023-01-23T23:13:46.098Z,16.85
2023-01-23T23:16:17.791Z,18.23
2023-01-23T23:18:46.751Z,17.08
2023-01-23T23:21:16.599Z,16.15
2023-01-23T23:23:46.142Z,14.75
2023-01-23T23:26:14.695Z,18.80
2023-01-23T23:28:43.143Z,19.23
2023-01-23T23:31:11.297Z,19.15
2023-01-23T23:33:39.410Z,14.75
2023-01-23T23:36:08.196Z,15.13
2023-01-23T23:38:36.141Z,16.83
2023-01-23T23:41:07.138Z,18.02
2023-01-23T23:43:35.814Z,14.85
2023-01-23T23:46:06.188Z,15.30
2023-01-23T23:48:35.406Z,19.27
2023-01-23T23:51:04.960Z,16.30
2023-01-23T23:53:33.171Z,16.75
2023-01-23T23:56:01.116Z,17.30
2023-01-23T23:58:30.341Z,16.23
